To NAV CANADA Home Page Login to a new session Search on AWWS site Feedback and Comments Disclaimer Vers la page française équivalente Tips FAQ What's new on the site To the Forecasts and Observations / NOTAM section To "File a Flight Plan" website Publications and other links Update of the User's profile FIC Telephone Numbers My Weather Data Folder Route Weather Data Regional Weather Data Local Weather Data To the Forecasts and Observations / NOTAM section
Request Generated 09/04/2015 at 16:28:17 UTC . Weather information available at that time is displayed.

METAR/TAF

HAMILTON/ON    

METAR CYHM 041600Z 04016KT 10SM FEW007 SCT012 BKN100 23/21 A3010 RMK
CF1SC3AC2 SLP191 DENSITY ALT 1600FT=
METAR CYHM 041500Z 05013KT 8SM FEW010 SCT060 BKN100 BKN170 22/21
A3010 RMK SC2SC1AC2AC1 SLP190 DENSITY ALT 1500FT=
METAR CYHM 041400Z 05013G18KT 6SM BR FEW010 SCT062 BKN088 BKN130
22/21 A3008 RMK SC1SC2AC2AC2 SLP186 DENSITY ALT 1600FT=

TAF AMD CYHM 041247Z 0412/0512 05010KT P6SM SCT040 BKN120 TEMPO
0412/0414 4SM VCTS BR BKN012 BKN040 OVC120CB
FM041400 06010KT P6SM SCT012 SCT040 TEMPO 0414/0416 BKN012 BKN040
FM041600 06010KT P6SM SCT050 BKN140 TEMPO 0416/0502 BKN050 BKN140
FM050200 05008KT P6SM SKC PROB30 0508/0512 11/2SM BR
RMK NXT FCST BY 041800Z=
Your time UTC time
Weather data provided by Environment Canada and NAV CANADA